createdAt,value
2019-06-07T00:00:40.773Z,5.50
2019-06-07T00:01:40.631Z,5.30
2019-06-07T00:02:40.881Z,5.30
2019-06-07T00:03:40.965Z,5.70
2019-06-07T00:04:41.079Z,5.00
2019-06-07T00:05:41.249Z,5.40
2019-06-07T00:06:41.396Z,5.00
2019-06-07T00:07:41.545Z,4.80
2019-06-07T00:08:41.694Z,4.90
2019-06-07T00:09:41.841Z,4.80
2019-06-07T00:10:41.990Z,5.50
2019-06-07T00:11:42.141Z,5.60
2019-06-07T00:12:42.290Z,5.40
2019-06-07T00:13:42.440Z,5.00
2019-06-07T00:14:42.586Z,5.00
2019-06-07T00:15:42.737Z,5.00
2019-06-07T00:16:42.884Z,5.10
2019-06-07T00:17:43.038Z,5.00
2019-06-07T00:18:43.184Z,4.60
2019-06-07T00:19:43.340Z,4.40
2019-06-07T00:20:43.485Z,4.50
2019-06-07T00:22:15.980Z,4.40
2019-06-07T00:22:43.782Z,4.40
2019-06-07T00:23:43.946Z,4.20
2019-06-07T00:24:44.075Z,4.40
2019-06-07T00:25:44.257Z,3.90
2019-06-07T00:26:57.717Z,4.00
2019-06-07T00:27:44.556Z,4.20
2019-06-07T00:28:44.706Z,4.40
2019-06-07T00:29:44.851Z,4.30
2019-06-07T00:30:51.650Z,4.40
2019-06-07T00:31:45.153Z,4.50
2019-06-07T00:32:45.303Z,3.90
2019-06-07T00:33:45.450Z,4.20
2019-06-07T00:34:45.600Z,4.40
2019-06-07T00:35:45.752Z,4.60
2019-06-07T00:36:45.902Z,4.40
2019-06-07T00:37:46.050Z,4.20
2019-06-07T00:38:46.199Z,4.30
2019-06-07T00:40:07.520Z,4.30
2019-06-07T00:40:46.494Z,4.60
2019-06-07T00:41:46.644Z,4.40
2019-06-07T00:42:46.793Z,4.40
2019-06-07T00:43:46.944Z,4.40
2019-06-07T00:44:47.092Z,4.90
2019-06-07T00:45:47.245Z,5.00
2019-06-07T00:46:47.396Z,5.10
2019-06-07T00:47:47.540Z,5.50
2019-06-07T00:48:47.690Z,5.40
2019-06-07T00:49:47.838Z,5.30
2019-06-07T00:50:47.989Z,5.70
2019-06-07T00:51:51.157Z,5.40
2019-06-07T00:53:27.360Z,5.80
2019-06-07T00:53:48.434Z,5.30
2019-06-07T00:54:48.599Z,6.00
2019-06-07T00:55:48.731Z,5.40
2019-06-07T00:56:48.878Z,5.80
2019-06-07T00:57:49.027Z,5.60
2019-06-07T00:59:09.693Z,5.80
2019-06-07T00:59:49.325Z,5.60
2019-06-07T01:00:49.473Z,6.00
2019-06-07T01:01:49.622Z,6.30
2019-06-07T01:02:49.777Z,5.80
2019-06-07T01:03:49.927Z,6.40
2019-06-07T01:04:50.074Z,6.00
2019-06-07T01:05:50.221Z,6.00
2019-06-07T01:06:50.370Z,6.30
2019-06-07T01:07:50.582Z,4.90
2019-06-07T01:08:50.667Z,4.70
2019-06-07T01:09:50.819Z,4.70
2019-06-07T01:10:54.011Z,4.80
2019-06-07T01:11:51.116Z,4.90
2019-06-07T01:12:51.268Z,4.80
2019-06-07T01:13:51.428Z,5.30
2019-06-07T01:14:51.579Z,5.10
2019-06-07T01:15:51.711Z,4.60
2019-06-07T01:17:01.303Z,4.60
2019-06-07T01:18:32.902Z,4.80
2019-06-07T01:18:52.154Z,5.20
2019-06-07T01:19:52.305Z,5.40
2019-06-07T01:20:52.495Z,5.80
2019-06-07T01:21:52.602Z,5.30
2019-06-07T01:22:52.750Z,5.40
2019-06-07T01:24:10.700Z,5.00
2019-06-07T01:24:53.050Z,5.20
2019-06-07T01:25:53.200Z,5.80
2019-06-07T01:26:53.349Z,5.70
2019-06-07T01:27:53.498Z,5.50
2019-06-07T01:28:53.645Z,5.30
2019-06-07T01:29:53.798Z,5.60
2019-06-07T01:30:53.944Z,5.30
2019-06-07T01:31:54.092Z,6.10
2019-06-07T01:32:54.241Z,6.00
2019-06-07T01:33:54.394Z,5.70
2019-06-07T01:34:54.541Z,5.10
2019-06-07T01:35:54.691Z,5.60
2019-06-07T01:36:54.842Z,5.70
2019-06-07T01:37:54.991Z,5.70
2019-06-07T01:38:55.139Z,5.60
2019-06-07T01:39:55.327Z,5.70
2019-06-07T01:40:55.436Z,6.20
2019-06-07T01:41:55.586Z,6.30
2019-06-07T01:42:55.736Z,6.00
2019-06-07T01:43:55.885Z,5.40
2019-06-07T01:44:56.098Z,5.90
2019-06-07T01:45:56.184Z,5.80
2019-06-07T01:46:56.331Z,5.60
2019-06-07T01:47:56.512Z,5.70
2019-06-07T01:48:56.629Z,5.20
2019-06-07T01:49:56.775Z,5.90
2019-06-07T01:50:56.930Z,5.70
2019-06-07T01:51:57.077Z,5.40
2019-06-07T01:52:57.225Z,5.20
2019-06-07T01:54:41.541Z,4.90
2019-06-07T01:54:58.978Z,5.50
2019-06-07T01:55:57.672Z,4.90
2019-06-07T01:56:57.820Z,5.30
2019-06-07T01:57:57.969Z,5.30
2019-06-07T01:58:58.119Z,5.80
2019-06-07T01:59:58.269Z,6.50
2019-06-07T02:00:58.418Z,5.90
2019-06-07T02:01:58.566Z,6.10
2019-06-07T02:02:58.735Z,6.10
2019-06-07T02:03:58.859Z,6.90
2019-06-07T02:04:59.005Z,6.70
2019-06-07T02:05:59.157Z,7.00
2019-06-07T02:06:59.306Z,6.70
2019-06-07T02:07:59.455Z,6.60
2019-06-07T02:08:59.603Z,6.60
2019-06-07T02:09:59.751Z,6.50
2019-06-07T02:10:59.901Z,6.60
2019-06-07T02:12:00.049Z,6.10
2019-06-07T02:13:00.196Z,6.20
2019-06-07T02:14:00.345Z,6.30
2019-06-07T02:15:00.497Z,5.80
2019-06-07T02:16:00.645Z,6.90
2019-06-07T02:17:00.791Z,6.50
2019-06-07T02:18:00.943Z,6.90
2019-06-07T02:19:02.324Z,6.50
2019-06-07T02:20:01.266Z,6.60
2019-06-07T02:21:01.435Z,6.30
2019-06-07T02:22:01.533Z,6.80
2019-06-07T02:23:01.678Z,6.40
2019-06-07T02:24:01.826Z,6.30
2019-06-07T02:25:36.844Z,6.00
2019-06-07T02:26:02.125Z,6.30
2019-06-07T02:27:02.278Z,5.40
2019-06-07T02:28:26.788Z,6.80
2019-06-07T02:29:02.570Z,6.20
2019-06-07T02:30:35.467Z,5.80
2019-06-07T02:31:02.870Z,5.80
2019-06-07T02:32:03.054Z,6.20
2019-06-07T02:33:03.169Z,4.80
2019-06-07T02:34:03.387Z,5.50
2019-06-07T02:35:03.474Z,5.10
2019-06-07T02:36:03.684Z,6.30
2019-06-07T02:37:03.772Z,4.70
2019-06-07T02:38:03.921Z,5.60
2019-06-07T02:39:04.060Z,6.00
2019-06-07T02:40:04.207Z,5.60
2019-06-07T02:41:04.363Z,5.40
2019-06-07T02:42:04.505Z,5.60
2019-06-07T02:43:04.653Z,5.50
2019-06-07T02:44:04.804Z,5.90
2019-06-07T02:45:04.957Z,6.00
2019-06-07T02:46:24.541Z,6.60
2019-06-07T02:47:05.255Z,6.40
2019-06-07T02:48:05.407Z,6.70
2019-06-07T02:49:05.560Z,6.70
2019-06-07T02:50:05.706Z,6.30
2019-06-07T02:51:05.890Z,5.70
2019-06-07T02:52:06.050Z,5.60
2019-06-07T02:53:06.150Z,6.00
2019-06-07T02:54:06.342Z,6.20
2019-06-07T02:55:06.448Z,6.20
2019-06-07T02:56:42.032Z,6.70
2019-06-07T02:57:06.742Z,6.50
2019-06-07T02:58:06.896Z,6.10
2019-06-07T02:59:07.041Z,6.10
2019-06-07T03:00:40.042Z,6.10
2019-06-07T03:01:09.573Z,6.00
2019-06-07T03:02:07.491Z,6.80
2019-06-07T03:03:07.638Z,6.40
2019-06-07T03:04:07.793Z,5.50
2019-06-07T03:05:07.937Z,6.50
2019-06-07T03:06:08.087Z,6.20
2019-06-07T03:07:08.238Z,5.80
2019-06-07T03:08:08.387Z,6.80
2019-06-07T03:09:08.565Z,6.40
2019-06-07T03:10:08.685Z,6.60
2019-06-07T03:11:08.841Z,7.00
2019-06-07T03:12:09.002Z,6.70
2019-06-07T03:13:09.144Z,7.20
2019-06-07T03:14:09.293Z,7.00
2019-06-07T03:15:09.441Z,7.00
2019-06-07T03:16:09.589Z,6.70
2019-06-07T03:17:09.736Z,6.50
2019-06-07T03:18:09.884Z,6.50
2019-06-07T03:19:10.035Z,6.40
2019-06-07T03:20:10.185Z,6.90
2019-06-07T03:21:10.331Z,5.90
2019-06-07T03:22:10.484Z,6.40
2019-06-07T03:23:10.633Z,6.00
2019-06-07T03:24:10.780Z,5.70
2019-06-07T03:25:10.930Z,6.60
2019-06-07T03:26:11.078Z,6.70
2019-06-07T03:27:34.241Z,6.90
2019-06-07T03:28:11.379Z,6.70
2019-06-07T03:29:11.528Z,6.90
2019-06-07T03:30:35.986Z,8.10
2019-06-07T03:31:11.824Z,8.10
2019-06-07T03:32:12.045Z,9.20
2019-06-07T03:33:12.132Z,8.10
2019-06-07T03:34:12.275Z,6.80
2019-06-07T03:35:12.424Z,7.50
2019-06-07T03:36:23.282Z,7.40
2019-06-07T03:37:12.722Z,7.40
2019-06-07T03:38:12.874Z,7.40
2019-06-07T03:39:13.022Z,7.30
2019-06-07T03:40:13.171Z,7.60
2019-06-07T03:41:13.317Z,7.80
2019-06-07T03:42:13.467Z,8.20
2019-06-07T03:43:13.614Z,7.70
2019-06-07T03:44:13.766Z,7.80
2019-06-07T03:45:13.914Z,7.00
2019-06-07T03:46:14.079Z,8.30
2019-06-07T03:47:14.268Z,7.80
2019-06-07T03:48:14.387Z,7.20
2019-06-07T03:49:14.576Z,7.50
2019-06-07T03:50:14.687Z,6.30
2019-06-07T03:51:24.817Z,6.10
2019-06-07T03:52:14.984Z,6.90
2019-06-07T03:53:15.131Z,6.80
2019-06-07T03:54:15.282Z,6.90
2019-06-07T03:55:15.446Z,6.20
2019-06-07T03:56:15.878Z,6.70
2019-06-07T03:57:15.732Z,7.40
2019-06-07T03:58:34.725Z,6.70
2019-06-07T03:59:16.033Z,7.20
2019-06-07T04:00:16.182Z,7.30
2019-06-07T04:01:16.337Z,7.00
2019-06-07T04:02:16.483Z,7.00
2019-06-07T04:03:32.750Z,7.50
2019-06-07T04:04:16.781Z,7.60
2019-06-07T04:05:16.932Z,7.10
2019-06-07T04:06:17.080Z,7.50
2019-06-07T04:07:17.229Z,8.00
2019-06-07T04:08:17.380Z,8.00
2019-06-07T04:09:17.529Z,7.30
2019-06-07T04:10:17.763Z,7.80
2019-06-07T04:11:17.830Z,8.00
2019-06-07T04:12:17.979Z,7.70
2019-06-07T04:13:18.135Z,7.40
2019-06-07T04:14:18.277Z,7.10
2019-06-07T04:15:18.426Z,7.20
2019-06-07T04:16:18.575Z,7.50
2019-06-07T04:17:18.724Z,7.20
2019-06-07T04:18:18.874Z,8.30
2019-06-07T04:19:19.024Z,6.20
2019-06-07T04:20:19.188Z,6.90
2019-06-07T04:21:19.319Z,7.40
2019-06-07T04:22:19.461Z,7.10
2019-06-07T04:23:29.920Z,7.30
2019-06-07T04:24:19.972Z,7.60
2019-06-07T04:25:19.895Z,7.80
2019-06-07T04:26:20.040Z,7.50
2019-06-07T04:27:20.188Z,7.10
2019-06-07T04:28:20.341Z,7.70
2019-06-07T04:29:56.672Z,7.20
2019-06-07T04:30:20.659Z,7.60
2019-06-07T04:31:22.159Z,8.40
2019-06-07T04:32:20.959Z,7.90
2019-06-07T04:33:21.107Z,8.20
2019-06-07T04:34:21.256Z,8.40
2019-06-07T04:35:21.407Z,8.80
2019-06-07T04:36:39.506Z,8.60
2019-06-07T04:37:21.706Z,8.30
2019-06-07T04:38:21.856Z,8.60
2019-06-07T04:39:22.004Z,9.30
2019-06-07T04:40:22.154Z,10.20
2019-06-07T04:41:22.309Z,9.80
2019-06-07T04:42:22.457Z,9.30
2019-06-07T04:43:22.604Z,8.50
2019-06-07T04:44:22.755Z,8.60
2019-06-07T04:45:33.967Z,8.10
2019-06-07T04:46:23.054Z,8.20
2019-06-07T04:47:23.197Z,8.40
2019-06-07T04:48:23.354Z,9.20
2019-06-07T04:49:23.507Z,8.90
2019-06-07T04:50:23.654Z,9.10
2019-06-07T04:51:23.848Z,8.90
2019-06-07T04:52:23.950Z,9.00
2019-06-07T04:53:24.099Z,7.90
2019-06-07T04:54:24.274Z,8.90
2019-06-07T04:55:24.397Z,8.50
2019-06-07T04:56:24.556Z,8.90
2019-06-07T04:57:24.691Z,9.80
2019-06-07T04:58:24.842Z,9.90
2019-06-07T05:00:04.219Z,9.10
2019-06-07T05:00:48.762Z,9.00
2019-06-07T05:01:27.839Z,9.10
2019-06-07T05:02:25.443Z,9.60
2019-06-07T05:03:25.589Z,9.90
2019-06-07T05:04:25.738Z,10.10
2019-06-07T05:05:25.887Z,10.60
2019-06-07T05:06:26.034Z,10.30
2019-06-07T05:07:26.654Z,10.60
2019-06-07T05:08:28.541Z,10.60
2019-06-07T05:09:26.498Z,10.70
2019-06-07T05:10:26.644Z,10.60
2019-06-07T05:11:26.860Z,10.40
2019-06-07T05:12:26.942Z,9.70
2019-06-07T05:13:27.090Z,10.80
2019-06-07T05:14:28.363Z,11.50
2019-06-07T05:15:27.388Z,11.00
2019-06-07T05:16:27.536Z,10.60
2019-06-07T05:17:28.875Z,10.20
2019-06-07T05:18:27.837Z,8.60
2019-06-07T05:19:27.986Z,8.60
2019-06-07T05:20:28.134Z,8.90
2019-06-07T05:21:49.392Z,9.60
2019-06-07T05:22:30.797Z,9.00
2019-06-07T05:24:03.545Z,8.40
2019-06-07T05:24:30.270Z,8.30
2019-06-07T05:25:31.643Z,8.40
2019-06-07T05:26:30.498Z,7.50
2019-06-07T05:27:32.584Z,7.90
2019-06-07T05:28:30.024Z,7.80
2019-06-07T05:29:30.802Z,7.80
2019-06-07T05:31:03.012Z,7.30
2019-06-07T05:31:31.093Z,6.60
2019-06-07T05:32:32.882Z,6.60
2019-06-07T05:33:31.183Z,6.90
2019-06-07T05:34:32.290Z,6.30
2019-06-07T05:35:30.645Z,5.90
2019-06-07T05:36:31.479Z,5.80
2019-06-07T05:37:33.520Z,5.90
2019-06-07T05:38:31.081Z,5.90
2019-06-07T05:39:32.122Z,5.40
2019-06-07T05:40:32.935Z,4.50
2019-06-07T05:41:32.312Z,4.90
2019-06-07T05:42:32.134Z,5.60
2019-06-07T05:43:35.089Z,5.20
2019-06-07T05:44:31.738Z,5.30
2019-06-07T05:45:32.355Z,5.10
2019-06-07T05:46:33.888Z,5.30
2019-06-07T05:47:32.226Z,5.40
2019-06-07T05:48:32.373Z,5.30
2019-06-07T05:49:33.056Z,5.00
2019-06-07T05:50:42.613Z,5.40
2019-06-07T05:51:34.616Z,5.50
2019-06-07T05:52:34.032Z,5.70
2019-06-07T05:53:34.611Z,5.60
2019-06-07T05:54:35.113Z,6.10
2019-06-07T05:55:35.160Z,6.40
2019-06-07T05:56:35.712Z,5.80
2019-06-07T05:57:37.310Z,6.30
2019-06-07T05:58:35.048Z,5.70
2019-06-07T05:59:37.949Z,5.50
2019-06-07T06:00:36.100Z,5.30
2019-06-07T06:01:46.008Z,5.30
2019-06-07T06:02:53.020Z,5.50
2019-06-07T06:03:35.102Z,5.60
2019-06-07T06:04:36.012Z,5.50
2019-06-07T06:05:41.638Z,5.10
2019-06-07T06:06:36.347Z,5.50
2019-06-07T06:07:38.682Z,5.60
2019-06-07T06:08:36.650Z,5.10
2019-06-07T06:09:36.468Z,5.50
2019-06-07T06:10:37.693Z,5.60
2019-06-07T06:11:49.332Z,6.00
2019-06-07T06:12:40.887Z,6.40
2019-06-07T06:13:38.283Z,5.90
2019-06-07T06:14:39.594Z,6.70
2019-06-07T06:15:45.314Z,5.80
2019-06-07T06:16:37.171Z,6.50
2019-06-07T06:17:40.346Z,5.70
2019-06-07T06:18:38.038Z,5.70
2019-06-07T06:19:39.746Z,5.80
2019-06-07T06:21:02.226Z,5.60
2019-06-07T06:21:38.531Z,5.50
2019-06-07T06:22:41.444Z,5.60
2019-06-07T06:23:39.503Z,5.90
2019-06-07T06:24:39.450Z,5.50
2019-06-07T06:25:41.590Z,5.70
2019-06-07T06:26:45.458Z,5.30
2019-06-07T06:28:38.401Z,5.00
2019-06-07T06:29:40.242Z,5.70
2019-06-07T06:30:40.940Z,5.20
2019-06-07T06:31:48.274Z,5.50
2019-06-07T06:32:43.005Z,5.80
2019-06-07T06:33:39.623Z,6.50
2019-06-07T06:34:43.245Z,5.50
2019-06-07T06:35:39.883Z,5.60
2019-06-07T06:36:40.544Z,5.90
2019-06-07T06:37:42.536Z,5.60
2019-06-07T06:38:41.279Z,5.40
2019-06-07T06:39:42.036Z,5.20
2019-06-07T06:40:43.319Z,5.10
2019-06-07T06:41:50.381Z,5.30
2019-06-07T06:42:42.096Z,5.10
2019-06-07T06:43:42.266Z,6.20
2019-06-07T06:44:42.542Z,7.70
2019-06-07T06:45:42.425Z,6.20
2019-06-07T06:46:46.675Z,5.70
2019-06-07T06:47:43.150Z,6.30
2019-06-07T06:48:47.403Z,6.10
2019-06-07T06:49:42.149Z,6.40
2019-06-07T06:50:43.618Z,5.00
2019-06-07T06:51:43.090Z,5.50
2019-06-07T06:52:43.984Z,5.30
2019-06-07T06:53:43.744Z,5.90
2019-06-07T06:54:46.696Z,6.30
2019-06-07T06:55:43.960Z,7.00
2019-06-07T06:56:45.159Z,7.30
2019-06-07T06:57:43.516Z,6.90
2019-06-07T06:59:21.586Z,7.10
2019-06-07T06:59:45.085Z,6.80
2019-06-07T07:00:52.263Z,7.00
2019-06-07T07:01:45.035Z,6.70
2019-06-07T07:03:33.048Z,6.30
2019-06-07T07:04:01.160Z,6.80
2019-06-07T07:04:45.546Z,6.50
2019-06-07T07:05:46.288Z,6.20
2019-06-07T07:06:45.428Z,5.80
2019-06-07T07:07:45.317Z,5.80
2019-06-07T07:08:47.861Z,6.50
2019-06-07T07:09:51.078Z,6.70
2019-06-07T07:10:45.994Z,6.50
2019-06-07T07:12:04.242Z,6.50
2019-06-07T07:12:45.427Z,6.30
2019-06-07T07:13:49.250Z,6.00
2019-06-07T07:14:47.257Z,6.40
2019-06-07T07:15:49.973Z,6.10
2019-06-07T07:16:49.604Z,6.20
2019-06-07T07:17:53.818Z,6.30
2019-06-07T07:18:47.543Z,6.50
2019-06-07T07:19:48.428Z,6.90
2019-06-07T07:20:48.247Z,6.90
2019-06-07T07:21:51.427Z,6.60
2019-06-07T07:22:48.571Z,6.10
2019-06-07T07:24:06.570Z,6.30
2019-06-07T07:24:47.680Z,6.80
2019-06-07T07:25:53.645Z,5.90
2019-06-07T07:26:50.124Z,6.20
2019-06-07T07:27:52.089Z,6.10
2019-06-07T07:28:51.862Z,6.80
2019-06-07T07:29:53.114Z,5.40
2019-06-07T07:30:49.976Z,6.50
2019-06-07T07:31:51.741Z,6.00
2019-06-07T07:32:48.966Z,6.10
2019-06-07T07:34:51.493Z,5.60
2019-06-07T07:36:14.065Z,6.40
2019-06-07T07:36:52.919Z,6.20
2019-06-07T07:37:54.056Z,5.70
2019-06-07T07:38:53.235Z,5.30
2019-06-07T07:39:52.987Z,5.50
2019-06-07T07:41:01.805Z,5.10
2019-06-07T07:42:13.745Z,5.40
2019-06-07T07:42:52.713Z,4.90
2019-06-07T07:43:59.379Z,5.00
2019-06-07T07:44:53.425Z,5.20
2019-06-07T07:45:54.679Z,5.30
2019-06-07T07:46:53.810Z,4.90
2019-06-07T07:48:08.248Z,5.40
2019-06-07T07:48:53.027Z,5.00
2019-06-07T07:49:53.036Z,4.80
2019-06-07T07:50:54.425Z,5.00
2019-06-07T07:51:55.702Z,5.30
2019-06-07T07:52:59.518Z,4.70
2019-06-07T07:54:01.559Z,4.90
2019-06-07T07:54:52.827Z,5.00
2019-06-07T07:55:54.934Z,4.30
2019-06-07T07:56:55.606Z,4.20
2019-06-07T07:58:00.898Z,4.20
2019-06-07T07:58:56.194Z,4.40
2019-06-07T08:00:06.151Z,4.50
2019-06-07T08:01:02.779Z,4.10
2019-06-07T08:01:55.550Z,4.10
2019-06-07T08:02:55.255Z,4.20
2019-06-07T08:03:54.961Z,4.20
2019-06-07T08:05:16.564Z,4.20
2019-06-07T08:05:54.953Z,3.60
2019-06-07T08:06:54.748Z,3.80
2019-06-07T08:07:56.723Z,4.00
2019-06-07T08:08:55.903Z,4.20
2019-06-07T08:09:57.718Z,4.40
2019-06-07T08:10:56.442Z,4.50
2019-06-07T08:11:59.994Z,3.80
2019-06-07T08:13:16.276Z,4.10
2019-06-07T08:13:57.256Z,3.80
2019-06-07T08:14:58.479Z,3.90
2019-06-07T08:15:59.207Z,4.00
2019-06-07T08:16:57.557Z,4.10
2019-06-07T08:17:59.639Z,3.90
2019-06-07T08:19:02.263Z,4.00
2019-06-07T08:19:57.560Z,4.50
2019-06-07T08:21:20.267Z,3.60
2019-06-07T08:21:55.839Z,4.30
2019-06-07T08:22:59.689Z,4.00
2019-06-07T08:24:00.377Z,4.00
2019-06-07T08:24:59.866Z,3.90
2019-06-07T08:26:00.138Z,3.90
2019-06-07T08:27:17.651Z,3.70
2019-06-07T08:27:58.575Z,3.10
2019-06-07T08:28:59.740Z,3.60
2019-06-07T08:30:15.757Z,3.70
2019-06-07T08:31:04.356Z,3.40
2019-06-07T08:31:58.681Z,3.60
2019-06-07T08:33:23.528Z,4.00
2019-06-07T08:34:00.444Z,3.20
2019-06-07T08:35:05.629Z,3.50
2019-06-07T08:36:11.266Z,3.40
2019-06-07T08:37:01.252Z,3.20
2019-06-07T08:39:07.039Z,3.30
2019-06-07T08:39:59.669Z,3.40
2019-06-07T08:41:05.922Z,3.80
2019-06-07T08:42:14.047Z,3.30
2019-06-07T08:43:15.380Z,3.40
2019-06-07T08:44:02.641Z,3.50
2019-06-07T08:45:03.642Z,3.20
2019-06-07T08:46:04.412Z,3.40
2019-06-07T08:47:16.717Z,3.00
2019-06-07T08:48:09.185Z,3.00
2019-06-07T08:49:03.937Z,3.00
2019-06-07T08:50:06.275Z,3.60
2019-06-07T08:51:06.579Z,3.40
2019-06-07T08:52:09.894Z,3.10
2019-06-07T08:53:11.051Z,3.00
2019-06-07T08:54:21.080Z,3.50
2019-06-07T08:55:04.500Z,3.10
2019-06-07T08:56:08.932Z,3.30
2019-06-07T08:57:20.039Z,3.20
2019-06-07T08:58:05.772Z,5.50
2019-06-07T08:59:10.849Z,3.70
2019-06-07T09:00:07.115Z,3.30
2019-06-07T09:01:07.763Z,3.40
2019-06-07T09:02:09.646Z,3.40
2019-06-07T09:03:05.023Z,3.60
2019-06-07T09:04:07.764Z,3.40
2019-06-07T09:05:11.191Z,2.90
2019-06-07T09:06:16.108Z,3.10
2019-06-07T09:07:14.708Z,3.00
2019-06-07T09:08:23.656Z,3.10
2019-06-07T09:09:05.182Z,3.10
2019-06-07T09:10:12.715Z,3.10
2019-06-07T09:11:10.456Z,3.30
2019-06-07T09:12:08.153Z,3.40
2019-06-07T09:13:10.155Z,3.20
2019-06-07T09:14:08.801Z,3.00
2019-06-07T09:15:18.147Z,3.30
2019-06-07T09:16:08.567Z,3.20
2019-06-07T09:17:08.761Z,3.50
2019-06-07T09:19:10.438Z,3.30
2019-06-07T09:20:08.468Z,3.00
2019-06-07T09:21:09.024Z,3.70
2019-06-07T09:22:10.252Z,3.00
2019-06-07T09:23:11.424Z,3.30
2019-06-07T09:24:11.203Z,3.20
2019-06-07T09:25:12.255Z,3.30
2019-06-07T09:26:15.907Z,3.50
2019-06-07T09:27:07.878Z,3.20
2019-06-07T09:28:14.234Z,3.70
2019-06-07T09:29:09.466Z,4.10
2019-06-07T09:30:15.239Z,4.40
2019-06-07T09:31:09.890Z,3.50
2019-06-07T09:32:12.104Z,4.10
2019-06-07T09:33:07.063Z,3.90
2019-06-07T09:34:11.786Z,6.10
2019-06-07T09:35:12.450Z,7.40
2019-06-07T09:36:10.197Z,4.30
2019-06-07T09:37:54.790Z,4.00
2019-06-07T09:38:21.805Z,3.50
2019-06-07T09:39:10.074Z,3.40
2019-06-07T09:40:21.824Z,3.70
2019-06-07T09:41:09.377Z,3.10
2019-06-07T09:42:10.613Z,3.10
2019-06-07T09:43:55.331Z,3.60
2019-06-07T09:44:23.205Z,3.40
2019-06-07T09:45:12.229Z,3.40
2019-06-07T09:46:12.955Z,3.40
2019-06-07T09:47:29.890Z,3.30
2019-06-07T09:48:13.888Z,3.60
2019-06-07T09:49:18.101Z,3.30
2019-06-07T09:50:12.206Z,3.50
2019-06-07T09:51:19.318Z,3.50
2019-06-07T09:52:11.103Z,3.20
2019-06-07T09:53:21.030Z,3.20
2019-06-07T09:54:11.530Z,3.20
2019-06-07T09:55:23.095Z,3.20
2019-06-07T09:56:12.206Z,3.20
2019-06-07T09:57:16.602Z,3.20
2019-06-07T09:58:48.709Z,3.30
2019-06-07T09:59:12.846Z,3.20
2019-06-07T10:00:38.253Z,3.50
2019-06-07T10:01:13.740Z,3.60
2019-06-07T10:02:13.727Z,3.50
2019-06-07T10:03:20.062Z,3.80
2019-06-07T10:04:28.237Z,4.20
2019-06-07T10:05:14.078Z,3.70
2019-06-07T10:06:13.682Z,4.10
2019-06-07T10:07:28.525Z,3.90
2019-06-07T10:08:54.711Z,4.10
2019-06-07T10:11:12.522Z,3.60
2019-06-07T10:12:12.675Z,3.60
2019-06-07T10:13:12.835Z,3.50
2019-06-07T10:14:12.985Z,3.50
2019-06-07T10:15:13.144Z,3.20
2019-06-07T10:16:13.300Z,3.80
2019-06-07T10:17:13.455Z,3.90
2019-06-07T10:18:13.609Z,3.40
2019-06-07T10:19:13.770Z,3.40
2019-06-07T10:20:13.926Z,3.80
2019-06-07T10:21:15.206Z,3.50
2019-06-07T10:22:14.233Z,3.70
2019-06-07T10:23:14.377Z,3.50
2019-06-07T10:24:14.529Z,3.40
2019-06-07T10:25:14.686Z,3.60
2019-06-07T10:26:14.842Z,3.20
2019-06-07T10:27:14.998Z,3.40
2019-06-07T10:28:15.153Z,3.40
2019-06-07T10:29:15.309Z,3.50
2019-06-07T10:30:15.466Z,3.50
2019-06-07T10:31:15.619Z,3.20
2019-06-07T10:32:15.776Z,3.00
2019-06-07T10:33:15.934Z,2.90
2019-06-07T10:34:16.087Z,2.70
2019-06-07T10:35:16.683Z,2.50
2019-06-07T10:36:16.431Z,2.70
2019-06-07T10:37:16.557Z,2.60
2019-06-07T10:38:16.710Z,2.80
2019-06-07T10:39:16.868Z,2.60
2019-06-07T10:40:17.021Z,2.60
2019-06-07T10:41:17.174Z,2.80
2019-06-07T10:42:17.338Z,2.90
2019-06-07T10:43:17.491Z,2.80
2019-06-07T10:44:17.645Z,3.10
2019-06-07T10:45:17.802Z,3.00
2019-06-07T10:46:17.954Z,2.90
2019-06-07T10:47:18.119Z,2.80
2019-06-07T10:48:18.263Z,2.90
2019-06-07T10:49:18.412Z,3.00
2019-06-07T10:50:18.567Z,2.90
2019-06-07T10:51:18.720Z,2.90
2019-06-07T10:52:18.876Z,2.90
2019-06-07T10:53:19.033Z,3.10
2019-06-07T10:54:27.868Z,2.70
2019-06-07T10:55:19.341Z,2.70
2019-06-07T10:56:19.496Z,2.90
2019-06-07T10:57:19.652Z,3.40
2019-06-07T10:58:19.806Z,3.10
2019-06-07T10:59:19.965Z,3.20
2019-06-07T11:00:20.120Z,2.90
2019-06-07T11:01:20.274Z,2.90
2019-06-07T11:02:20.432Z,2.70
2019-06-07T11:03:20.588Z,3.00
2019-06-07T11:04:20.748Z,2.70
2019-06-07T11:05:20.901Z,2.90
2019-06-07T11:06:21.059Z,3.20
2019-06-07T11:07:21.210Z,3.00
2019-06-07T11:08:21.369Z,2.80
2019-06-07T11:09:21.525Z,3.00
2019-06-07T11:10:21.688Z,2.90
2019-06-07T11:11:21.835Z,2.80
2019-06-07T11:12:22.005Z,3.20
2019-06-07T11:13:22.149Z,3.10
2019-06-07T11:14:22.306Z,2.90
2019-06-07T11:15:22.462Z,2.80
2019-06-07T11:16:22.618Z,3.30
2019-06-07T11:17:22.781Z,2.80
2019-06-07T11:18:22.928Z,3.00
2019-06-07T11:19:23.082Z,2.90
2019-06-07T11:20:23.240Z,3.00
2019-06-07T11:21:23.398Z,2.90
2019-06-07T11:22:23.552Z,3.10
2019-06-07T11:23:23.707Z,3.20
2019-06-07T11:24:24.865Z,2.80
2019-06-07T11:25:24.021Z,3.20
2019-06-07T11:26:24.177Z,3.10
2019-06-07T11:27:24.343Z,3.10
2019-06-07T11:28:24.473Z,3.00
2019-06-07T11:29:24.647Z,3.10
2019-06-07T11:30:24.797Z,2.90
2019-06-07T11:31:24.953Z,2.90
2019-06-07T11:32:25.110Z,2.70
2019-06-07T11:33:25.267Z,3.20
2019-06-07T11:34:25.423Z,3.30
2019-06-07T11:35:25.581Z,2.80
2019-06-07T11:36:25.735Z,3.10
2019-06-07T11:37:25.929Z,3.10
2019-06-07T11:38:26.053Z,3.20
2019-06-07T11:39:26.211Z,3.50
2019-06-07T11:40:34.000Z,3.20
2019-06-07T11:41:26.527Z,3.30
2019-06-07T11:42:26.686Z,3.30
2019-06-07T11:43:26.840Z,3.30
2019-06-07T11:44:26.998Z,3.10
2019-06-07T11:45:27.152Z,2.90
2019-06-07T11:46:27.316Z,3.20
2019-06-07T11:47:27.473Z,3.50
2019-06-07T11:48:27.628Z,3.70
2019-06-07T11:49:27.787Z,3.10
2019-06-07T11:50:27.943Z,2.90
2019-06-07T11:51:28.123Z,2.70
2019-06-07T11:52:28.261Z,3.20
2019-06-07T11:53:28.423Z,3.00
2019-06-07T11:54:28.576Z,2.80
2019-06-07T11:55:28.730Z,3.00
2019-06-07T11:56:28.909Z,3.00
2019-06-07T11:57:29.063Z,3.10
2019-06-07T11:58:29.234Z,3.10
2019-06-07T11:59:29.380Z,2.90
2019-06-07T12:00:29.535Z,3.00
2019-06-07T12:01:29.693Z,2.80
2019-06-07T12:02:29.850Z,2.70
2019-06-07T12:03:30.010Z,3.20
2019-06-07T12:04:34.812Z,3.20
2019-06-07T12:05:30.324Z,2.80
2019-06-07T12:06:30.480Z,2.90
2019-06-07T12:07:30.638Z,2.80
2019-06-07T12:08:30.796Z,3.00
2019-06-07T12:09:30.957Z,2.80
2019-06-07T12:10:42.109Z,2.90
2019-06-07T12:11:31.273Z,2.90
2019-06-07T12:12:31.429Z,2.60
2019-06-07T12:13:31.585Z,2.80
2019-06-07T12:14:31.744Z,3.00
2019-06-07T12:15:31.900Z,2.90
2019-06-07T12:16:32.062Z,3.00
2019-06-07T12:17:32.217Z,2.80
2019-06-07T12:18:32.381Z,2.60
2019-06-07T12:19:32.533Z,2.80
2019-06-07T12:20:32.691Z,3.00
2019-06-07T12:21:32.853Z,3.10
2019-06-07T12:22:33.008Z,2.60
2019-06-07T12:23:33.168Z,2.80
2019-06-07T12:24:33.324Z,2.80
2019-06-07T12:25:33.500Z,2.80
2019-06-07T12:26:33.639Z,2.70
2019-06-07T12:27:33.795Z,2.80
2019-06-07T12:28:33.953Z,2.70
2019-06-07T12:29:34.146Z,2.90
2019-06-07T12:30:34.267Z,3.00
2019-06-07T12:31:34.434Z,2.90
2019-06-07T12:32:34.588Z,2.90
2019-06-07T12:33:34.806Z,2.60
2019-06-07T12:34:34.913Z,2.80
2019-06-07T12:35:35.073Z,3.00
2019-06-07T12:36:35.231Z,3.30
2019-06-07T12:37:43.918Z,3.00
2019-06-07T12:38:35.546Z,2.80
2019-06-07T12:39:35.706Z,2.80
2019-06-07T12:40:35.861Z,2.80
2019-06-07T12:41:36.020Z,2.90
2019-06-07T12:42:36.176Z,2.80
2019-06-07T12:43:36.333Z,2.80
2019-06-07T12:44:36.494Z,2.60
2019-06-07T12:45:44.860Z,2.90
2019-06-07T12:46:36.809Z,2.90
2019-06-07T12:47:36.981Z,2.70
2019-06-07T12:48:37.127Z,2.70
2019-06-07T12:49:37.287Z,2.70
2019-06-07T12:50:43.002Z,2.70
2019-06-07T12:51:37.602Z,2.90
2019-06-07T12:52:37.763Z,2.50
2019-06-07T12:53:37.918Z,2.90
2019-06-07T12:54:38.076Z,3.10
2019-06-07T12:55:38.234Z,2.50
2019-06-07T12:56:38.396Z,3.10
2019-06-07T12:57:38.554Z,2.50
2019-06-07T12:58:39.580Z,2.70
2019-06-07T12:59:38.872Z,2.60
2019-06-07T13:00:39.030Z,2.60
2019-06-07T13:01:39.235Z,2.90
2019-06-07T13:02:39.348Z,2.60
2019-06-07T13:03:39.507Z,2.80
2019-06-07T13:04:39.669Z,2.90
2019-06-07T13:05:39.831Z,2.60
2019-06-07T13:06:39.987Z,2.60
2019-06-07T13:07:40.145Z,2.80
2019-06-07T13:08:40.308Z,2.80
2019-06-07T13:09:40.469Z,2.50
2019-06-07T13:10:40.629Z,2.90
2019-06-07T13:11:40.785Z,2.40
2019-06-07T13:12:44.025Z,2.50
2019-06-07T13:13:41.105Z,2.70
2019-06-07T13:14:41.266Z,2.50
2019-06-07T13:15:41.423Z,2.50
2019-06-07T13:16:41.582Z,2.50
2019-06-07T13:17:41.744Z,2.20
2019-06-07T13:18:41.901Z,2.50
2019-06-07T13:19:42.062Z,2.40
2019-06-07T13:20:42.222Z,2.40
2019-06-07T13:21:42.380Z,2.50
2019-06-07T13:22:42.542Z,2.50
2019-06-07T13:23:44.333Z,2.60
2019-06-07T13:24:42.861Z,2.50
2019-06-07T13:25:46.607Z,2.80
2019-06-07T13:26:43.181Z,2.70